Casselberry, Florida
Current Conditions -  °F | °C
As of 2:53 AM on Tuesday 21 Oct 2014 (Local Time) from KORL Reporting Station
Few Clouds Few Clouds  
Wind Chill: 74°   Ceiling: Unl
Heat Index: 74°   Visibility: 10mi
Dew Point: 68°   Wind: 5mph
Humidity: 82%   Direction: 220°SW
Pressure: 29.96"   Gusts: NA
Location:  28.67°N, 81.34°W
Report Text: KORL 210653Z AUTO 22004KT 10SM FEW055 23/20 A2996 RMK AO2 SLP146 T02330200
Loading
Personal Weather Stations






























Interactive Weather Map
Tropical Storm Tracking
New forecast layout! Learn more

10-Day Weather Forecast

Advertisements
Track Severe Weather on mobile